DNO1AE LGAV-OMDB
Flight info
| Callsign | DNO1AE |
|---|---|
| Flight time | N/A |
| Altitude | 39000 |
| Route | KEA UL52 VAXOS UN134 VANZA N134 KOMEZ DCT LAKTO L324 GENIV L550 KARIK B411 DEESA Y415 LOTOK P559 ALPOT M691 SILBA L308 EGREX P559 DAROR M708 GASSI P559 KOBOK L704 BOTOB P559 AMBOV Q322 DATOB |
| Aircraft | A35K/H-SDE2E3GHIJ3J4J5LM1ORWXY/LB1D1 |
Departure
| Time | N/A |
|---|---|
| Airport | Athens Eleftherios Venizelos International Airport (LGAV) |
Arrival
| Time | 2026-05-05 14:17 |
|---|---|
| Airport | Dubai International Airport (OMDB) |
| Time | Latitude | Longitude | Altitude | Speed | Heading |
|---|---|---|---|---|---|
| 2026-05-05 10:40 | 37.83185 | 24.62492 | 18552 ft | 439 kts | 123° |
| 2026-05-05 10:40 | 37.81487 | 24.65706 | 19116 ft | 443 kts | 123° |
| 2026-05-05 10:40 | 37.79762 | 24.68971 | 19715 ft | 447 kts | 123° |
| 2026-05-05 10:41 | 37.78029 | 24.72246 | 20322 ft | 451 kts | 123° |
| 2026-05-05 10:41 | 37.76276 | 24.75558 | 20940 ft | 455 kts | 123° |
| 2026-05-05 10:41 | 37.74512 | 24.78886 | 21561 ft | 459 kts | 123° |
| 2026-05-05 10:41 | 37.72725 | 24.82256 | 22186 ft | 463 kts | 123° |
| 2026-05-05 10:42 | 37.69108 | 24.89064 | 23405 ft | 471 kts | 123° |
| 2026-05-05 10:42 | 37.67274 | 24.92511 | 23988 ft | 474 kts | 123° |
| 2026-05-05 10:42 | 37.65425 | 24.95982 | 24480 ft | 479 kts | 123° |
| 2026-05-05 10:43 | 37.64897 | 24.96972 | 24629 ft | 480 kts | 123° |
| 2026-05-05 10:43 | 37.63501 | 24.99588 | 24986 ft | 483 kts | 123° |
| 2026-05-05 10:43 | 37.63005 | 25.00518 | 25123 ft | 484 kts | 123° |
| 2026-05-05 10:43 | 37.61096 | 25.04092 | 25624 ft | 488 kts | 123° |
| 2026-05-05 10:44 | 37.59185 | 25.07665 | 26106 ft | 492 kts | 123° |
| 2026-05-05 10:44 | 37.57290 | 25.11207 | 26607 ft | 496 kts | 122° |
| 2026-05-05 10:44 | 37.55363 | 25.14806 | 27064 ft | 501 kts | 122° |
| 2026-05-05 10:44 | 37.53403 | 25.18461 | 27519 ft | 505 kts | 122° |
| 2026-05-05 10:45 | 37.51428 | 25.22139 | 28022 ft | 509 kts | 122° |
| 2026-05-05 10:45 | 37.49438 | 25.25842 | 28466 ft | 513 kts | 122° |
| 2026-05-05 10:45 | 37.47426 | 25.29581 | 28906 ft | 517 kts | 122° |
| 2026-05-05 10:45 | 37.45401 | 25.33342 | 29334 ft | 522 kts | 122° |
| 2026-05-05 10:46 | 37.43354 | 25.37138 | 29745 ft | 526 kts | 122° |
| 2026-05-05 10:46 | 37.41294 | 25.40954 | 30150 ft | 529 kts | 122° |
| 2026-05-05 10:46 | 37.39215 | 25.44801 | 30479 ft | 533 kts | 122° |
| 2026-05-05 10:46 | 37.37120 | 25.48672 | 30838 ft | 535 kts | 122° |
| 2026-05-05 10:47 | 37.35023 | 25.52540 | 31268 ft | 536 kts | 122° |
| 2026-05-05 10:47 | 37.32928 | 25.56401 | 31796 ft | 534 kts | 122° |
| 2026-05-05 10:47 | 37.30833 | 25.60255 | 32270 ft | 533 kts | 122° |
| 2026-05-05 10:47 | 37.28744 | 25.64097 | 32740 ft | 532 kts | 122° |
| 2026-05-05 10:48 | 37.26660 | 25.67923 | 33198 ft | 532 kts | 122° |
| 2026-05-05 10:48 | 37.24570 | 25.71759 | 33630 ft | 531 kts | 122° |
| 2026-05-05 10:48 | 37.22485 | 25.75581 | 34079 ft | 530 kts | 122° |
| 2026-05-05 10:48 | 37.20402 | 25.79394 | 34466 ft | 529 kts | 122° |
| 2026-05-05 10:49 | 37.18354 | 25.83139 | 34808 ft | 528 kts | 123° |
| 2026-05-05 10:49 | 37.16275 | 25.86937 | 35146 ft | 528 kts | 123° |
| 2026-05-05 10:49 | 37.14201 | 25.90723 | 35472 ft | 527 kts | 123° |
| 2026-05-05 10:49 | 37.12127 | 25.94503 | 35796 ft | 527 kts | 123° |
| 2026-05-05 10:50 | 37.10049 | 25.98286 | 36109 ft | 526 kts | 123° |
| 2026-05-05 10:50 | 37.07972 | 26.02062 | 36400 ft | 526 kts | 123° |
| 2026-05-05 10:50 | 37.05894 | 26.05838 | 36703 ft | 526 kts | 123° |
| 2026-05-05 10:50 | 37.03817 | 26.09606 | 36968 ft | 526 kts | 123° |
| 2026-05-05 10:51 | 37.01742 | 26.13367 | 37249 ft | 526 kts | 123° |
| 2026-05-05 10:51 | 36.99659 | 26.17139 | 37508 ft | 526 kts | 123° |
| 2026-05-05 10:51 | 36.97602 | 26.20858 | 37761 ft | 526 kts | 123° |
| 2026-05-05 10:51 | 36.95518 | 26.24622 | 38019 ft | 526 kts | 124° |
| 2026-05-05 10:52 | 36.93438 | 26.28376 | 38259 ft | 526 kts | 124° |
| 2026-05-05 10:52 | 36.91347 | 26.32145 | 38471 ft | 526 kts | 124° |
| 2026-05-05 10:52 | 36.89253 | 26.35914 | 38721 ft | 527 kts | 124° |
| 2026-05-05 10:52 | 36.87164 | 26.39670 | 38886 ft | 527 kts | 124° |
| 2026-05-05 10:53 | 36.85074 | 26.43425 | 39040 ft | 528 kts | 124° |
| 2026-05-05 10:53 | 36.80848 | 26.51003 | 39080 ft | 535 kts | 124° |
| 2026-05-05 10:54 | 36.76591 | 26.58621 | 39076 ft | 542 kts | 124° |
| 2026-05-05 10:54 | 36.72248 | 26.66374 | 39076 ft | 546 kts | 124° |
| 2026-05-05 10:55 | 36.67890 | 26.74135 | 39068 ft | 546 kts | 124° |
| 2026-05-05 10:55 | 36.63524 | 26.81893 | 39066 ft | 546 kts | 124° |
| 2026-05-05 10:56 | 36.59169 | 26.89615 | 39059 ft | 546 kts | 124° |
| 2026-05-05 10:56 | 36.54801 | 26.97342 | 39059 ft | 545 kts | 124° |
| 2026-05-05 10:57 | 36.50434 | 27.05048 | 39056 ft | 545 kts | 124° |
| 2026-05-05 10:57 | 36.46086 | 27.12706 | 39056 ft | 545 kts | 124° |
| 2026-05-05 10:58 | 36.41687 | 27.20434 | 39051 ft | 545 kts | 125° |
| 2026-05-05 10:58 | 36.37331 | 27.28071 | 39048 ft | 545 kts | 125° |
| 2026-05-05 10:59 | 36.32944 | 27.35744 | 39045 ft | 545 kts | 125° |
| 2026-05-05 10:59 | 36.28560 | 27.43396 | 39040 ft | 545 kts | 125° |
| 2026-05-05 11:00 | 36.24160 | 27.51059 | 39030 ft | 545 kts | 125° |
| 2026-05-05 11:00 | 36.19760 | 27.58703 | 39030 ft | 545 kts | 125° |
| 2026-05-05 11:01 | 36.15353 | 27.66343 | 39032 ft | 545 kts | 125° |
| 2026-05-05 11:01 | 36.10945 | 27.73968 | 39029 ft | 545 kts | 126° |
| 2026-05-05 11:02 | 36.07269 | 27.80312 | 39032 ft | 545 kts | 126° |
| 2026-05-05 11:02 | 36.02848 | 27.87928 | 39031 ft | 545 kts | 126° |
| 2026-05-05 11:03 | 35.98420 | 27.95540 | 39032 ft | 546 kts | 126° |
| 2026-05-05 11:03 | 35.93984 | 28.03149 | 39031 ft | 546 kts | 126° |
| 2026-05-05 11:04 | 35.89535 | 28.10761 | 39030 ft | 547 kts | 126° |
| 2026-05-05 11:04 | 35.85086 | 28.18359 | 39030 ft | 547 kts | 126° |
| 2026-05-05 11:05 | 35.80629 | 28.25953 | 39026 ft | 547 kts | 126° |
| 2026-05-05 11:05 | 35.76159 | 28.33552 | 39026 ft | 547 kts | 126° |
| 2026-05-05 11:06 | 35.71693 | 28.41128 | 39026 ft | 547 kts | 126° |
| 2026-05-05 11:06 | 35.67228 | 28.48687 | 39024 ft | 547 kts | 126° |
| 2026-05-05 11:07 | 35.62750 | 28.56250 | 39026 ft | 547 kts | 126° |
| 2026-05-05 11:07 | 35.58271 | 28.63799 | 39026 ft | 547 kts | 127° |
| 2026-05-05 11:08 | 35.53776 | 28.71357 | 39026 ft | 547 kts | 127° |
| 2026-05-05 11:08 | 35.49288 | 28.78888 | 39026 ft | 547 kts | 127° |
| 2026-05-05 11:09 | 35.44785 | 28.86428 | 39027 ft | 548 kts | 127° |
| 2026-05-05 11:09 | 35.40304 | 28.93915 | 39025 ft | 548 kts | 127° |
| 2026-05-05 11:10 | 35.35787 | 29.01446 | 39027 ft | 548 kts | 127° |
| 2026-05-05 11:10 | 35.31266 | 29.08967 | 39025 ft | 549 kts | 127° |
| 2026-05-05 11:11 | 35.26736 | 29.16487 | 39029 ft | 549 kts | 127° |
| 2026-05-05 11:11 | 35.22199 | 29.24002 | 39028 ft | 549 kts | 127° |
| 2026-05-05 11:12 | 35.17655 | 29.31514 | 39031 ft | 549 kts | 127° |
| 2026-05-05 11:12 | 35.13107 | 29.39016 | 39028 ft | 550 kts | 127° |
| 2026-05-05 11:13 | 35.08544 | 29.46526 | 39029 ft | 550 kts | 127° |
| 2026-05-05 11:13 | 35.03980 | 29.54022 | 39030 ft | 550 kts | 127° |
| 2026-05-05 11:14 | 34.99419 | 29.61497 | 39028 ft | 550 kts | 127° |
| 2026-05-05 11:14 | 34.94849 | 29.68971 | 39026 ft | 550 kts | 128° |
| 2026-05-05 11:15 | 34.90273 | 29.76440 | 39028 ft | 550 kts | 128° |
| 2026-05-05 11:15 | 34.85679 | 29.83921 | 39023 ft | 551 kts | 128° |
| 2026-05-05 11:16 | 34.81086 | 29.91386 | 39023 ft | 551 kts | 128° |
| 2026-05-05 11:16 | 34.76485 | 29.98848 | 39023 ft | 551 kts | 128° |
| 2026-05-05 11:17 | 34.71989 | 30.06392 | 39023 ft | 551 kts | 125° |
| 2026-05-05 11:17 | 34.67703 | 30.14118 | 39024 ft | 552 kts | 124° |
| 2026-05-05 11:18 | 34.63414 | 30.21830 | 39023 ft | 550 kts | 125° |
| 2026-05-05 11:18 | 34.59082 | 30.29500 | 39023 ft | 551 kts | 126° |
| 2026-05-05 11:19 | 34.54736 | 30.37137 | 39023 ft | 552 kts | 126° |
| 2026-05-05 11:19 | 34.50363 | 30.44799 | 39021 ft | 552 kts | 126° |
| 2026-05-05 11:20 | 34.45984 | 30.52460 | 39019 ft | 552 kts | 126° |
| 2026-05-05 11:20 | 34.41610 | 30.60098 | 39019 ft | 552 kts | 126° |
| 2026-05-05 11:21 | 34.37217 | 30.67754 | 39021 ft | 552 kts | 126° |
| 2026-05-05 11:21 | 34.32835 | 30.75373 | 39021 ft | 552 kts | 126° |
| 2026-05-05 11:22 | 34.28467 | 30.82953 | 39020 ft | 553 kts | 126° |
| 2026-05-05 11:22 | 34.23620 | 30.90111 | 39021 ft | 548 kts | 141° |
| 2026-05-05 11:23 | 34.17474 | 30.95409 | 39018 ft | 542 kts | 151° |
| 2026-05-05 11:23 | 34.11051 | 31.00200 | 39021 ft | 542 kts | 152° |
| 2026-05-05 11:24 | 34.04607 | 31.04935 | 39024 ft | 542 kts | 152° |
| 2026-05-05 11:24 | 33.98187 | 31.09689 | 39020 ft | 542 kts | 152° |
| 2026-05-05 11:25 | 33.91771 | 31.14463 | 39019 ft | 541 kts | 152° |
| 2026-05-05 11:25 | 33.85358 | 31.19231 | 39019 ft | 541 kts | 152° |
| 2026-05-05 11:26 | 33.78953 | 31.23985 | 39020 ft | 541 kts | 152° |
| 2026-05-05 11:26 | 33.72544 | 31.28730 | 39019 ft | 541 kts | 153° |
| 2026-05-05 11:27 | 33.66145 | 31.33460 | 39017 ft | 540 kts | 153° |
| 2026-05-05 11:27 | 33.59732 | 31.38191 | 39019 ft | 540 kts | 153° |
| 2026-05-05 11:28 | 33.53331 | 31.42905 | 39022 ft | 540 kts | 153° |
| 2026-05-05 11:28 | 33.46964 | 31.47586 | 39025 ft | 540 kts | 153° |
| 2026-05-05 11:29 | 33.40560 | 31.52287 | 39034 ft | 540 kts | 153° |
| 2026-05-05 11:29 | 33.34162 | 31.56974 | 39025 ft | 539 kts | 154° |
| 2026-05-05 11:30 | 33.27761 | 31.61656 | 39026 ft | 539 kts | 154° |
| 2026-05-05 11:30 | 33.21360 | 31.66328 | 39028 ft | 539 kts | 154° |
| 2026-05-05 11:31 | 33.14952 | 31.70999 | 39030 ft | 539 kts | 154° |
| 2026-05-05 11:31 | 33.08547 | 31.75659 | 39029 ft | 539 kts | 154° |
| 2026-05-05 11:32 | 33.02157 | 31.80299 | 39034 ft | 539 kts | 154° |
| 2026-05-05 11:32 | 32.95739 | 31.84953 | 39032 ft | 539 kts | 154° |
| 2026-05-05 11:33 | 32.89333 | 31.89589 | 39031 ft | 539 kts | 154° |
| 2026-05-05 11:33 | 32.82963 | 31.94192 | 39035 ft | 539 kts | 155° |
| 2026-05-05 11:34 | 32.76546 | 31.98822 | 39036 ft | 540 kts | 155° |
| 2026-05-05 11:34 | 32.70123 | 32.03447 | 39039 ft | 540 kts | 155° |
| 2026-05-05 11:35 | 32.63796 | 32.08283 | 39038 ft | 547 kts | 147° |
| 2026-05-05 11:35 | 32.58284 | 32.14624 | 39040 ft | 555 kts | 139° |
| 2026-05-05 11:36 | 32.53025 | 32.21334 | 39041 ft | 556 kts | 137° |
| 2026-05-05 11:36 | 32.47781 | 32.28081 | 39039 ft | 556 kts | 138° |
| 2026-05-05 11:37 | 32.42514 | 32.34794 | 39036 ft | 556 kts | 138° |
| 2026-05-05 11:37 | 32.37235 | 32.41477 | 39053 ft | 556 kts | 139° |
| 2026-05-05 11:38 | 32.31939 | 32.48160 | 39045 ft | 556 kts | 139° |
| 2026-05-05 11:38 | 32.26649 | 32.54827 | 39042 ft | 556 kts | 139° |
| 2026-05-05 11:39 | 32.21354 | 32.61490 | 39047 ft | 556 kts | 139° |
| 2026-05-05 11:39 | 32.16061 | 32.68139 | 39047 ft | 556 kts | 139° |
| 2026-05-05 11:40 | 32.10792 | 32.74746 | 39048 ft | 556 kts | 139° |
| 2026-05-05 11:40 | 32.05494 | 32.81376 | 39050 ft | 555 kts | 139° |
| 2026-05-05 11:41 | 32.00199 | 32.87992 | 39047 ft | 555 kts | 139° |
| 2026-05-05 11:41 | 31.94905 | 32.94593 | 39053 ft | 554 kts | 139° |
| 2026-05-05 11:42 | 31.89612 | 33.01183 | 39052 ft | 554 kts | 139° |
| 2026-05-05 11:42 | 31.84124 | 33.07450 | 39053 ft | 543 kts | 150° |
| 2026-05-05 11:42 | 31.80994 | 33.09806 | 39053 ft | 530 kts | 161° |
| 2026-05-05 11:43 | 31.77632 | 33.11452 | 39053 ft | 516 kts | 172° |
| 2026-05-05 11:43 | 31.74188 | 33.12341 | 39054 ft | 502 kts | 182° |
| 2026-05-05 11:43 | 31.70731 | 33.12691 | 39051 ft | 497 kts | 185° |
| 2026-05-05 11:44 | 31.63836 | 33.13035 | 39054 ft | 495 kts | 187° |
| 2026-05-05 11:44 | 31.56967 | 33.13297 | 39053 ft | 494 kts | 187° |
| 2026-05-05 11:45 | 31.50100 | 33.13605 | 39059 ft | 494 kts | 186° |
| 2026-05-05 11:45 | 31.43241 | 33.13944 | 39060 ft | 494 kts | 186° |
| 2026-05-05 11:46 | 31.36357 | 33.15109 | 39069 ft | 512 kts | 172° |
| 2026-05-05 11:46 | 31.32974 | 33.16616 | 39065 ft | 524 kts | 162° |
| 2026-05-05 11:46 | 31.29705 | 33.18525 | 39059 ft | 527 kts | 161° |
| 2026-05-05 11:47 | 31.23237 | 33.22627 | 39055 ft | 530 kts | 159° |
| 2026-05-05 11:47 | 31.16795 | 33.26779 | 39055 ft | 530 kts | 160° |
| 2026-05-05 11:48 | 31.08166 | 33.32249 | 39054 ft | 529 kts | 160° |
| 2026-05-05 11:48 | 31.00636 | 33.36975 | 39051 ft | 528 kts | 160° |
| 2026-05-05 11:49 | 30.95217 | 33.40369 | 39050 ft | 528 kts | 160° |
| 2026-05-05 11:49 | 30.88747 | 33.44416 | 39047 ft | 528 kts | 160° |
| 2026-05-05 11:50 | 30.82283 | 33.48455 | 39045 ft | 527 kts | 160° |
| 2026-05-05 11:50 | 30.75817 | 33.52489 | 39045 ft | 527 kts | 161° |
| 2026-05-05 11:51 | 30.69369 | 33.56508 | 39050 ft | 526 kts | 161° |
| 2026-05-05 11:51 | 30.62943 | 33.60505 | 39046 ft | 526 kts | 161° |
| 2026-05-05 11:52 | 30.56492 | 33.64512 | 39047 ft | 525 kts | 161° |
| 2026-05-05 11:52 | 30.50045 | 33.68509 | 39047 ft | 525 kts | 161° |
| 2026-05-05 11:53 | 30.43602 | 33.72498 | 39044 ft | 525 kts | 161° |
| 2026-05-05 11:53 | 30.37166 | 33.76477 | 39049 ft | 525 kts | 161° |
| 2026-05-05 11:54 | 30.30712 | 33.80462 | 39050 ft | 525 kts | 161° |
| 2026-05-05 11:54 | 30.24283 | 33.84425 | 39047 ft | 525 kts | 161° |
| 2026-05-05 11:55 | 30.17834 | 33.88395 | 39052 ft | 525 kts | 161° |
| 2026-05-05 11:55 | 30.11379 | 33.92362 | 39050 ft | 525 kts | 161° |
| 2026-05-05 11:56 | 30.04930 | 33.96319 | 39048 ft | 525 kts | 161° |
| 2026-05-05 11:56 | 29.98473 | 34.00276 | 39050 ft | 525 kts | 161° |
| 2026-05-05 11:57 | 29.92039 | 34.04213 | 39049 ft | 525 kts | 161° |
| 2026-05-05 11:57 | 29.85577 | 34.08161 | 39045 ft | 524 kts | 161° |
| 2026-05-05 11:58 | 29.79130 | 34.12094 | 39048 ft | 524 kts | 161° |
| 2026-05-05 11:58 | 29.72684 | 34.16021 | 39045 ft | 524 kts | 161° |
| 2026-05-05 11:59 | 29.66619 | 34.20888 | 39048 ft | 546 kts | 143° |
| 2026-05-05 11:59 | 29.64112 | 34.24237 | 39046 ft | 558 kts | 131° |
| 2026-05-05 11:59 | 29.62175 | 34.28144 | 39056 ft | 569 kts | 118° |
| 2026-05-05 12:00 | 29.60933 | 34.32444 | 39048 ft | 578 kts | 105° |
| 2026-05-05 12:00 | 29.60449 | 34.37042 | 39038 ft | 583 kts | 92° |
| 2026-05-05 12:00 | 29.60631 | 34.46385 | 39046 ft | 585 kts | 91° |
| 2026-05-05 12:01 | 29.59840 | 34.55617 | 39036 ft | 578 kts | 110° |
| 2026-05-05 12:01 | 29.58460 | 34.59911 | 39039 ft | 568 kts | 122° |
| 2026-05-05 12:01 | 29.56451 | 34.63753 | 39035 ft | 555 kts | 134° |
| 2026-05-05 12:02 | 29.53928 | 34.67013 | 39032 ft | 541 kts | 146° |
| 2026-05-05 12:02 | 29.51113 | 34.69866 | 39030 ft | 538 kts | 148° |
| 2026-05-05 12:02 | 29.46038 | 34.76351 | 39030 ft | 559 kts | 129° |
| 2026-05-05 12:03 | 29.44216 | 34.80329 | 39034 ft | 569 kts | 117° |
| 2026-05-05 12:03 | 29.43067 | 34.84702 | 39036 ft | 577 kts | 105° |
| 2026-05-05 12:03 | 29.41831 | 34.93835 | 39035 ft | 583 kts | 95° |
| 2026-05-05 12:04 | 29.41964 | 34.98494 | 39038 ft | 586 kts | 83° |
| 2026-05-05 12:04 | 29.42744 | 35.03080 | 39039 ft | 587 kts | 76° |
| 2026-05-05 12:04 | 29.44801 | 35.12094 | 39038 ft | 588 kts | 74° |
| 2026-05-05 12:05 | 29.47001 | 35.21143 | 39051 ft | 589 kts | 74° |
| 2026-05-05 12:05 | 29.49062 | 35.29783 | 39041 ft | 589 kts | 75° |
| 2026-05-05 12:06 | 29.51185 | 35.38884 | 39020 ft | 589 kts | 75° |
| 2026-05-05 12:06 | 29.53286 | 35.47976 | 39030 ft | 589 kts | 75° |
| 2026-05-05 12:07 | 29.55409 | 35.57053 | 39024 ft | 589 kts | 75° |
| 2026-05-05 12:07 | 29.57537 | 35.66154 | 39025 ft | 590 kts | 77° |
| 2026-05-05 12:08 | 29.59294 | 35.75381 | 39011 ft | 591 kts | 79° |
| 2026-05-05 12:08 | 29.60906 | 35.84667 | 39009 ft | 590 kts | 79° |
| 2026-05-05 12:09 | 29.62493 | 35.93924 | 39012 ft | 590 kts | 79° |
| 2026-05-05 12:09 | 29.64091 | 36.03162 | 39006 ft | 590 kts | 79° |
| 2026-05-05 12:10 | 29.65685 | 36.12353 | 39003 ft | 590 kts | 79° |
| 2026-05-05 12:10 | 29.67286 | 36.21609 | 38999 ft | 590 kts | 80° |
| 2026-05-05 12:11 | 29.68878 | 36.30862 | 39000 ft | 590 kts | 80° |
| 2026-05-05 12:11 | 29.70464 | 36.40136 | 39002 ft | 591 kts | 80° |
| 2026-05-05 12:12 | 29.72043 | 36.49408 | 39002 ft | 591 kts | 80° |
| 2026-05-05 12:12 | 29.73621 | 36.58704 | 39003 ft | 592 kts | 80° |
| 2026-05-05 12:13 | 29.74695 | 36.68062 | 39005 ft | 588 kts | 94° |
| 2026-05-05 12:13 | 29.73697 | 36.77289 | 39006 ft | 580 kts | 107° |
| 2026-05-05 12:14 | 29.72222 | 36.86426 | 39000 ft | 582 kts | 104° |
| 2026-05-05 12:14 | 29.70887 | 36.95611 | 38998 ft | 582 kts | 104° |
| 2026-05-05 12:15 | 29.69560 | 37.04804 | 38996 ft | 582 kts | 104° |
| 2026-05-05 12:15 | 29.68238 | 37.13921 | 38991 ft | 581 kts | 104° |
| 2026-05-05 12:16 | 29.66899 | 37.23085 | 38987 ft | 580 kts | 104° |
| 2026-05-05 12:16 | 29.65554 | 37.32230 | 38987 ft | 580 kts | 105° |
| 2026-05-05 12:17 | 29.64208 | 37.41360 | 38994 ft | 579 kts | 104° |
| 2026-05-05 12:17 | 29.62853 | 37.50481 | 38983 ft | 578 kts | 105° |
| 2026-05-05 12:18 | 29.61495 | 37.59588 | 38991 ft | 577 kts | 105° |
| 2026-05-05 12:18 | 29.60135 | 37.68669 | 38995 ft | 576 kts | 105° |
| 2026-05-05 12:19 | 29.58769 | 37.77741 | 39000 ft | 576 kts | 105° |
| 2026-05-05 12:19 | 29.57396 | 37.86817 | 39004 ft | 576 kts | 105° |
| 2026-05-05 12:20 | 29.56019 | 37.95879 | 39012 ft | 575 kts | 105° |
| 2026-05-05 12:20 | 29.54640 | 38.04909 | 39014 ft | 576 kts | 105° |
| 2026-05-05 12:21 | 29.53245 | 38.13991 | 39011 ft | 577 kts | 105° |
| 2026-05-05 12:21 | 29.51845 | 38.23079 | 39018 ft | 578 kts | 105° |
| 2026-05-05 12:22 | 29.50441 | 38.32148 | 39020 ft | 578 kts | 105° |
| 2026-05-05 12:22 | 29.49028 | 38.41231 | 39022 ft | 578 kts | 105° |
| 2026-05-05 12:23 | 29.47619 | 38.50249 | 39024 ft | 578 kts | 105° |
| 2026-05-05 12:23 | 29.46195 | 38.59318 | 39023 ft | 577 kts | 106° |
| 2026-05-05 12:24 | 29.44766 | 38.68374 | 39028 ft | 577 kts | 106° |
| 2026-05-05 12:24 | 29.43331 | 38.77429 | 39031 ft | 577 kts | 106° |
| 2026-05-05 12:25 | 29.41888 | 38.86492 | 39036 ft | 577 kts | 106° |
| 2026-05-05 12:25 | 29.40439 | 38.95552 | 39037 ft | 578 kts | 106° |
| 2026-05-05 12:26 | 29.38983 | 39.04619 | 39039 ft | 578 kts | 106° |
| 2026-05-05 12:26 | 29.37780 | 39.12074 | 39037 ft | 579 kts | 106° |
| 2026-05-05 12:27 | 29.36309 | 39.21154 | 39042 ft | 579 kts | 106° |
| 2026-05-05 12:27 | 29.34836 | 39.30212 | 39041 ft | 579 kts | 107° |
| 2026-05-05 12:28 | 29.33352 | 39.39297 | 39037 ft | 579 kts | 107° |
| 2026-05-05 12:28 | 29.31871 | 39.48320 | 39045 ft | 579 kts | 107° |
| 2026-05-05 12:29 | 29.30378 | 39.57380 | 39045 ft | 579 kts | 107° |
| 2026-05-05 12:29 | 29.28880 | 39.66430 | 39047 ft | 578 kts | 107° |
| 2026-05-05 12:30 | 29.27374 | 39.75492 | 39046 ft | 578 kts | 107° |
| 2026-05-05 12:30 | 29.25865 | 39.84526 | 39064 ft | 578 kts | 107° |
| 2026-05-05 12:31 | 29.24349 | 39.93564 | 39049 ft | 578 kts | 108° |
| 2026-05-05 12:31 | 29.22828 | 40.02593 | 39046 ft | 578 kts | 108° |
| 2026-05-05 12:32 | 29.21299 | 40.11630 | 39056 ft | 578 kts | 108° |
| 2026-05-05 12:32 | 29.19763 | 40.20668 | 39054 ft | 578 kts | 108° |
| 2026-05-05 12:33 | 29.18487 | 40.28150 | 39053 ft | 578 kts | 108° |
| 2026-05-05 12:33 | 29.16941 | 40.37181 | 39053 ft | 578 kts | 108° |
| 2026-05-05 12:34 | 29.15136 | 40.47674 | 39047 ft | 577 kts | 108° |
| 2026-05-05 12:34 | 29.13581 | 40.56674 | 39040 ft | 577 kts | 108° |
| 2026-05-05 12:35 | 29.12272 | 40.64216 | 39039 ft | 577 kts | 108° |
| 2026-05-05 12:35 | 29.10705 | 40.73220 | 39042 ft | 577 kts | 108° |
| 2026-05-05 12:36 | 29.09133 | 40.82211 | 39038 ft | 577 kts | 109° |
| 2026-05-05 12:36 | 29.07553 | 40.91215 | 39034 ft | 577 kts | 109° |
| 2026-05-05 12:37 | 29.05978 | 41.00150 | 39030 ft | 577 kts | 109° |
| 2026-05-05 12:37 | 29.04387 | 41.09135 | 39029 ft | 577 kts | 109° |
| 2026-05-05 12:38 | 29.02789 | 41.18123 | 39026 ft | 577 kts | 109° |
| 2026-05-05 12:38 | 29.01189 | 41.27091 | 39020 ft | 577 kts | 109° |
| 2026-05-05 12:39 | 28.99578 | 41.36090 | 39019 ft | 577 kts | 109° |
| 2026-05-05 12:39 | 28.97966 | 41.45051 | 39005 ft | 577 kts | 109° |
| 2026-05-05 12:40 | 28.96350 | 41.54002 | 39003 ft | 576 kts | 109° |
| 2026-05-05 12:40 | 28.94727 | 41.62952 | 38997 ft | 575 kts | 109° |
| 2026-05-05 12:41 | 28.93100 | 41.71892 | 38995 ft | 575 kts | 109° |
| 2026-05-05 12:41 | 28.91468 | 41.80820 | 38994 ft | 574 kts | 109° |
| 2026-05-05 12:42 | 28.89837 | 41.89716 | 38990 ft | 573 kts | 109° |
| 2026-05-05 12:42 | 28.88195 | 41.98630 | 38988 ft | 573 kts | 109° |
| 2026-05-05 12:43 | 28.86553 | 42.07507 | 38980 ft | 573 kts | 109° |
| 2026-05-05 12:43 | 28.84899 | 42.16417 | 38976 ft | 573 kts | 109° |
| 2026-05-05 12:44 | 28.83252 | 42.25253 | 38977 ft | 574 kts | 109° |
| 2026-05-05 12:44 | 28.81588 | 42.34151 | 38969 ft | 574 kts | 109° |
| 2026-05-05 12:45 | 28.79914 | 42.43066 | 38962 ft | 575 kts | 109° |
| 2026-05-05 12:45 | 28.78231 | 42.51998 | 38961 ft | 576 kts | 109° |
| 2026-05-05 12:46 | 28.76544 | 42.60917 | 38956 ft | 577 kts | 109° |
| 2026-05-05 12:46 | 28.74845 | 42.69864 | 38951 ft | 577 kts | 109° |
| 2026-05-05 12:47 | 28.73143 | 42.78795 | 38948 ft | 577 kts | 109° |
| 2026-05-05 12:47 | 28.71434 | 42.87727 | 38949 ft | 577 kts | 109° |
| 2026-05-05 12:48 | 28.69719 | 42.96656 | 38948 ft | 577 kts | 109° |
| 2026-05-05 12:48 | 28.68010 | 43.05522 | 38933 ft | 577 kts | 109° |
| 2026-05-05 12:49 | 28.66273 | 43.14496 | 38944 ft | 576 kts | 109° |
| 2026-05-05 12:49 | 28.64542 | 43.23409 | 38934 ft | 576 kts | 109° |
| 2026-05-05 12:50 | 28.62818 | 43.32252 | 38932 ft | 576 kts | 109° |
| 2026-05-05 12:50 | 28.61078 | 43.41148 | 38922 ft | 576 kts | 109° |
| 2026-05-05 12:51 | 28.59333 | 43.50030 | 38920 ft | 576 kts | 109° |
| 2026-05-05 12:51 | 28.57581 | 43.58922 | 38919 ft | 575 kts | 109° |
| 2026-05-05 12:52 | 28.55823 | 43.67812 | 38916 ft | 575 kts | 109° |
| 2026-05-05 12:52 | 28.54062 | 43.76682 | 38911 ft | 574 kts | 109° |
| 2026-05-05 12:53 | 28.52301 | 43.85521 | 38909 ft | 574 kts | 110° |
| 2026-05-05 12:53 | 28.50533 | 43.94364 | 38904 ft | 573 kts | 110° |
| 2026-05-05 12:54 | 28.47873 | 44.07610 | 38897 ft | 572 kts | 110° |
| 2026-05-05 12:55 | 28.46092 | 44.16438 | 38896 ft | 572 kts | 110° |
| 2026-05-05 12:55 | 28.44308 | 44.25247 | 38890 ft | 572 kts | 110° |
| 2026-05-05 12:56 | 28.42522 | 44.34035 | 38887 ft | 571 kts | 110° |
| 2026-05-05 12:56 | 28.40740 | 44.42780 | 38882 ft | 571 kts | 110° |
| 2026-05-05 12:57 | 28.38931 | 44.51624 | 38883 ft | 571 kts | 110° |
| 2026-05-05 12:57 | 28.37143 | 44.60331 | 38873 ft | 571 kts | 110° |
| 2026-05-05 12:58 | 28.35321 | 44.69178 | 38871 ft | 571 kts | 110° |
| 2026-05-05 12:58 | 28.33512 | 44.77928 | 38875 ft | 570 kts | 110° |
| 2026-05-05 12:59 | 28.31702 | 44.86658 | 38866 ft | 570 kts | 110° |
| 2026-05-05 12:59 | 28.29866 | 44.95475 | 38865 ft | 570 kts | 110° |
| 2026-05-05 13:00 | 28.27134 | 45.08548 | 38863 ft | 570 kts | 110° |
| 2026-05-05 13:01 | 28.23454 | 45.26049 | 38856 ft | 571 kts | 110° |
| 2026-05-05 13:01 | 28.21601 | 45.34817 | 38853 ft | 571 kts | 110° |
| 2026-05-05 13:02 | 28.19748 | 45.43554 | 38848 ft | 571 kts | 110° |
| 2026-05-05 13:02 | 28.17883 | 45.52323 | 38846 ft | 571 kts | 110° |
| 2026-05-05 13:03 | 28.16015 | 45.61077 | 38845 ft | 571 kts | 110° |
| 2026-05-05 13:03 | 28.14143 | 45.69818 | 38842 ft | 571 kts | 110° |
| 2026-05-05 13:04 | 28.12262 | 45.78573 | 38836 ft | 571 kts | 111° |
| 2026-05-05 13:04 | 28.10378 | 45.87311 | 38835 ft | 571 kts | 111° |
| 2026-05-05 13:05 | 28.08499 | 45.95999 | 38836 ft | 572 kts | 111° |
| 2026-05-05 13:05 | 28.06590 | 46.04794 | 38829 ft | 572 kts | 111° |
| 2026-05-05 13:06 | 28.04685 | 46.13542 | 38821 ft | 572 kts | 111° |
| 2026-05-05 13:06 | 28.02788 | 46.22228 | 38815 ft | 573 kts | 111° |
| 2026-05-05 13:07 | 28.00869 | 46.30986 | 38805 ft | 573 kts | 111° |
| 2026-05-05 13:07 | 27.98945 | 46.39739 | 38796 ft | 574 kts | 111° |
| 2026-05-05 13:08 | 27.97011 | 46.48505 | 38791 ft | 574 kts | 111° |
| 2026-05-05 13:08 | 27.95074 | 46.57263 | 38784 ft | 574 kts | 111° |
| 2026-05-05 13:09 | 27.93130 | 46.66020 | 38778 ft | 574 kts | 111° |
| 2026-05-05 13:09 | 27.91181 | 46.74771 | 38766 ft | 575 kts | 111° |
| 2026-05-05 13:10 | 27.89223 | 46.83536 | 38769 ft | 575 kts | 111° |
| 2026-05-05 13:10 | 27.87269 | 46.92254 | 38757 ft | 576 kts | 111° |
| 2026-05-05 13:11 | 27.85283 | 47.01090 | 38753 ft | 576 kts | 111° |
| 2026-05-05 13:11 | 27.83317 | 47.09808 | 38761 ft | 577 kts | 111° |
| 2026-05-05 13:12 | 27.81331 | 47.18589 | 38757 ft | 577 kts | 111° |
| 2026-05-05 13:12 | 27.79337 | 47.27375 | 38736 ft | 573 kts | 111° |
| 2026-05-05 13:13 | 27.77348 | 47.36116 | 38744 ft | 577 kts | 111° |
| 2026-05-05 13:13 | 27.75338 | 47.44905 | 38740 ft | 579 kts | 111° |
| 2026-05-05 13:14 | 27.73344 | 47.53615 | 38735 ft | 579 kts | 111° |
| 2026-05-05 13:14 | 27.71327 | 47.62397 | 38726 ft | 578 kts | 111° |
| 2026-05-05 13:15 | 27.69304 | 47.71175 | 38725 ft | 578 kts | 111° |
| 2026-05-05 13:15 | 27.67277 | 47.79944 | 38721 ft | 577 kts | 111° |
| 2026-05-05 13:16 | 27.65243 | 47.88709 | 38716 ft | 576 kts | 111° |
| 2026-05-05 13:16 | 27.63211 | 47.97443 | 38712 ft | 576 kts | 111° |
| 2026-05-05 13:17 | 27.61175 | 48.06167 | 38712 ft | 575 kts | 111° |
| 2026-05-05 13:17 | 27.59151 | 48.14813 | 38712 ft | 574 kts | 111° |
| 2026-05-05 13:18 | 27.57107 | 48.23515 | 38717 ft | 574 kts | 111° |
| 2026-05-05 13:18 | 27.55046 | 48.32264 | 38709 ft | 573 kts | 111° |
| 2026-05-05 13:19 | 27.53011 | 48.40880 | 38707 ft | 573 kts | 111° |
| 2026-05-05 13:19 | 27.50952 | 48.49567 | 38708 ft | 573 kts | 111° |
| 2026-05-05 13:20 | 27.48895 | 48.58222 | 38712 ft | 572 kts | 110° |
| 2026-05-05 13:20 | 27.46834 | 48.66867 | 38712 ft | 572 kts | 110° |
| 2026-05-05 13:21 | 27.45240 | 48.73538 | 38709 ft | 572 kts | 110° |
| 2026-05-05 13:21 | 27.43185 | 48.82114 | 38711 ft | 572 kts | 110° |
| 2026-05-05 13:22 | 27.41095 | 48.90815 | 38716 ft | 571 kts | 111° |
| 2026-05-05 13:22 | 27.39015 | 48.99446 | 38712 ft | 571 kts | 111° |
| 2026-05-05 13:23 | 27.36930 | 49.08072 | 38713 ft | 571 kts | 111° |
| 2026-05-05 13:23 | 27.34839 | 49.16694 | 38709 ft | 571 kts | 111° |
| 2026-05-05 13:24 | 27.32756 | 49.25260 | 38711 ft | 571 kts | 111° |
| 2026-05-05 13:24 | 27.30656 | 49.33873 | 38710 ft | 571 kts | 111° |
| 2026-05-05 13:25 | 27.28549 | 49.42487 | 38711 ft | 571 kts | 111° |
| 2026-05-05 13:25 | 27.26438 | 49.51094 | 38717 ft | 571 kts | 111° |
| 2026-05-05 13:26 | 27.24322 | 49.59698 | 38720 ft | 571 kts | 111° |
| 2026-05-05 13:26 | 27.22199 | 49.68305 | 38723 ft | 572 kts | 111° |
| 2026-05-05 13:27 | 27.20069 | 49.76915 | 38726 ft | 571 kts | 111° |
| 2026-05-05 13:27 | 27.17938 | 49.85504 | 38729 ft | 571 kts | 111° |
| 2026-05-05 13:28 | 27.15799 | 49.94103 | 38731 ft | 571 kts | 111° |
| 2026-05-05 13:28 | 27.13659 | 50.02681 | 38733 ft | 570 kts | 111° |
| 2026-05-05 13:29 | 27.11518 | 50.11244 | 38736 ft | 570 kts | 111° |
| 2026-05-05 13:29 | 27.09372 | 50.19795 | 38736 ft | 569 kts | 111° |
| 2026-05-05 13:30 | 27.07233 | 50.28297 | 38736 ft | 569 kts | 111° |
| 2026-05-05 13:30 | 27.05010 | 50.36860 | 38728 ft | 565 kts | 115° |
| 2026-05-05 13:31 | 27.02109 | 50.44988 | 38740 ft | 561 kts | 119° |
| 2026-05-05 13:31 | 26.99079 | 50.52975 | 38739 ft | 560 kts | 119° |
| 2026-05-05 13:32 | 26.96011 | 50.60987 | 38742 ft | 559 kts | 119° |
| 2026-05-05 13:32 | 26.92945 | 50.69011 | 38742 ft | 559 kts | 119° |
| 2026-05-05 13:33 | 26.89895 | 50.76999 | 38747 ft | 557 kts | 119° |
| 2026-05-05 13:33 | 26.86848 | 50.84982 | 38747 ft | 559 kts | 119° |
| 2026-05-05 13:34 | 26.83780 | 50.93001 | 38745 ft | 559 kts | 119° |
| 2026-05-05 13:34 | 26.80873 | 51.01084 | 38746 ft | 561 kts | 116° |
| 2026-05-05 13:35 | 26.78137 | 51.09273 | 38750 ft | 561 kts | 116° |
| 2026-05-05 13:35 | 26.75403 | 51.17444 | 38750 ft | 562 kts | 116° |
| 2026-05-05 13:36 | 26.72628 | 51.25619 | 38751 ft | 562 kts | 116° |
| 2026-05-05 13:36 | 26.69833 | 51.33782 | 38753 ft | 562 kts | 116° |
| 2026-05-05 13:37 | 26.67038 | 51.41924 | 38750 ft | 562 kts | 116° |
| 2026-05-05 13:37 | 26.64227 | 51.50101 | 38752 ft | 562 kts | 116° |
| 2026-05-05 13:38 | 26.61421 | 51.58248 | 38754 ft | 562 kts | 116° |
| 2026-05-05 13:38 | 26.58627 | 51.66342 | 38754 ft | 563 kts | 116° |
| 2026-05-05 13:39 | 26.55803 | 51.74508 | 38745 ft | 562 kts | 116° |
| 2026-05-05 13:39 | 26.52980 | 51.82651 | 38754 ft | 562 kts | 116° |
| 2026-05-05 13:40 | 26.50155 | 51.90785 | 38747 ft | 562 kts | 116° |
| 2026-05-05 13:40 | 26.47331 | 51.98898 | 38754 ft | 561 kts | 116° |
| 2026-05-05 13:41 | 26.44504 | 52.07002 | 38753 ft | 560 kts | 116° |
| 2026-05-05 13:41 | 26.41707 | 52.15018 | 38758 ft | 545 kts | 116° |
| 2026-05-05 13:42 | 26.38942 | 52.22911 | 38757 ft | 546 kts | 116° |
| 2026-05-05 13:42 | 26.36178 | 52.30777 | 38757 ft | 545 kts | 116° |
| 2026-05-05 13:43 | 26.33407 | 52.38649 | 38758 ft | 544 kts | 116° |
| 2026-05-05 13:43 | 26.30646 | 52.46483 | 38761 ft | 544 kts | 116° |
| 2026-05-05 13:44 | 26.27869 | 52.54346 | 38757 ft | 544 kts | 116° |
| 2026-05-05 13:44 | 26.25098 | 52.62178 | 38753 ft | 544 kts | 116° |
| 2026-05-05 13:45 | 26.22314 | 52.70028 | 38761 ft | 544 kts | 116° |
| 2026-05-05 13:45 | 26.19534 | 52.77855 | 38760 ft | 544 kts | 116° |
| 2026-05-05 13:46 | 26.16745 | 52.85689 | 38757 ft | 544 kts | 115° |
| 2026-05-05 13:46 | 26.13956 | 52.93508 | 38757 ft | 544 kts | 115° |
| 2026-05-05 13:47 | 26.11161 | 53.01328 | 38760 ft | 544 kts | 115° |
| 2026-05-05 13:47 | 26.08344 | 53.09146 | 38761 ft | 544 kts | 116° |
| 2026-05-05 13:48 | 26.05476 | 53.16920 | 38763 ft | 543 kts | 116° |
| 2026-05-05 13:48 | 26.04064 | 53.20734 | 38432 ft | 533 kts | 116° |
| 2026-05-05 13:48 | 26.02656 | 53.24551 | 37331 ft | 527 kts | 116° |
| 2026-05-05 13:49 | 26.01268 | 53.28301 | 36009 ft | 535 kts | 116° |
| 2026-05-05 13:49 | 25.99848 | 53.32131 | 35337 ft | 537 kts | 116° |
| 2026-05-05 13:49 | 25.98428 | 53.35965 | 34664 ft | 538 kts | 116° |
| 2026-05-05 13:49 | 25.96997 | 53.39829 | 33917 ft | 541 kts | 116° |
| 2026-05-05 13:50 | 25.95577 | 53.43660 | 33088 ft | 544 kts | 116° |
| 2026-05-05 13:50 | 25.94139 | 53.47543 | 32282 ft | 541 kts | 116° |
| 2026-05-05 13:50 | 25.92709 | 53.51412 | 31494 ft | 542 kts | 115° |
| 2026-05-05 13:50 | 25.91320 | 53.55321 | 30667 ft | 545 kts | 114° |
| 2026-05-05 13:51 | 25.89970 | 53.59260 | 29818 ft | 548 kts | 113° |
| 2026-05-05 13:51 | 25.88627 | 53.63223 | 28856 ft | 550 kts | 112° |
| 2026-05-05 13:51 | 25.87287 | 53.67179 | 28228 ft | 544 kts | 112° |
| 2026-05-05 13:51 | 25.85955 | 53.71091 | 27612 ft | 538 kts | 112° |
| 2026-05-05 13:52 | 25.84637 | 53.74948 | 27003 ft | 533 kts | 112° |
| 2026-05-05 13:52 | 25.83320 | 53.78765 | 26385 ft | 527 kts | 112° |
| 2026-05-05 13:52 | 25.82003 | 53.82555 | 25758 ft | 522 kts | 112° |
| 2026-05-05 13:52 | 25.80701 | 53.86291 | 25176 ft | 517 kts | 112° |
| 2026-05-05 13:53 | 25.79407 | 53.89997 | 24630 ft | 511 kts | 112° |
| 2026-05-05 13:53 | 25.78134 | 53.93645 | 24061 ft | 499 kts | 112° |
| 2026-05-05 13:53 | 25.76915 | 53.97140 | 23436 ft | 474 kts | 111° |
| 2026-05-05 13:53 | 25.75756 | 54.00462 | 22803 ft | 451 kts | 111° |
| 2026-05-05 13:54 | 25.74654 | 54.03700 | 22252 ft | 447 kts | 110° |
| 2026-05-05 13:54 | 25.73635 | 54.06950 | 21703 ft | 447 kts | 109° |
| 2026-05-05 13:54 | 25.72658 | 54.10207 | 21174 ft | 444 kts | 108° |
| 2026-05-05 13:54 | 25.71691 | 54.13465 | 20632 ft | 442 kts | 108° |
| 2026-05-05 13:55 | 25.70727 | 54.16694 | 20074 ft | 440 kts | 108° |
| 2026-05-05 13:55 | 25.69743 | 54.19950 | 19721 ft | 450 kts | 109° |
| 2026-05-05 13:55 | 25.68740 | 54.23235 | 19053 ft | 448 kts | 109° |
| 2026-05-05 13:55 | 25.67738 | 54.26494 | 18422 ft | 446 kts | 109° |
| 2026-05-05 13:56 | 25.66736 | 54.29739 | 17799 ft | 442 kts | 109° |
| 2026-05-05 13:56 | 25.65744 | 54.32943 | 17203 ft | 437 kts | 109° |
| 2026-05-05 13:56 | 25.64766 | 54.36110 | 16632 ft | 432 kts | 109° |
| 2026-05-05 13:56 | 25.63797 | 54.39238 | 16059 ft | 426 kts | 109° |
| 2026-05-05 13:57 | 25.62837 | 54.42326 | 15498 ft | 422 kts | 109° |
| 2026-05-05 13:57 | 25.61882 | 54.45390 | 14911 ft | 418 kts | 108° |
| 2026-05-05 13:57 | 25.60940 | 54.48413 | 14322 ft | 414 kts | 108° |
| 2026-05-05 13:57 | 25.60006 | 54.51411 | 13897 ft | 406 kts | 108° |
| 2026-05-05 13:58 | 25.59101 | 54.54312 | 13765 ft | 390 kts | 108° |
| 2026-05-05 13:58 | 25.58235 | 54.57091 | 13678 ft | 374 kts | 108° |
| 2026-05-05 13:58 | 25.57404 | 54.59758 | 13588 ft | 359 kts | 108° |
| 2026-05-05 13:58 | 25.56595 | 54.62305 | 13474 ft | 345 kts | 109° |
| 2026-05-05 13:59 | 25.55046 | 54.67118 | 13243 ft | 319 kts | 108° |
| 2026-05-05 13:59 | 25.54313 | 54.69394 | 13126 ft | 307 kts | 108° |
| 2026-05-05 14:00 | 25.52928 | 54.73704 | 12711 ft | 292 kts | 108° |
| 2026-05-05 14:00 | 25.52477 | 54.75111 | 12469 ft | 292 kts | 109° |
| 2026-05-05 14:00 | 25.51575 | 54.77922 | 12040 ft | 288 kts | 109° |
| 2026-05-05 14:00 | 25.50894 | 54.79946 | 11868 ft | 283 kts | 112° |
| 2026-05-05 14:01 | 25.50106 | 54.81943 | 11733 ft | 282 kts | 113° |
| 2026-05-05 14:01 | 25.49306 | 54.83927 | 11466 ft | 284 kts | 113° |
| 2026-05-05 14:01 | 25.48515 | 54.85914 | 11144 ft | 281 kts | 113° |
| 2026-05-05 14:01 | 25.47739 | 54.87879 | 10605 ft | 276 kts | 113° |
| 2026-05-05 14:02 | 25.46979 | 54.89819 | 10027 ft | 274 kts | 113° |
| 2026-05-05 14:02 | 25.46222 | 54.91755 | 9450 ft | 274 kts | 113° |
| 2026-05-05 14:02 | 25.45470 | 54.93679 | 8827 ft | 270 kts | 112° |
| 2026-05-05 14:02 | 25.44710 | 54.95580 | 8332 ft | 269 kts | 115° |
| 2026-05-05 14:03 | 25.43831 | 54.97398 | 8056 ft | 266 kts | 119° |
| 2026-05-05 14:03 | 25.42914 | 54.99164 | 8015 ft | 265 kts | 119° |
| 2026-05-05 14:03 | 25.41996 | 55.00931 | 8010 ft | 265 kts | 119° |
| 2026-05-05 14:03 | 25.41081 | 55.02690 | 8015 ft | 265 kts | 120° |
| 2026-05-05 14:04 | 25.40159 | 55.04465 | 8010 ft | 265 kts | 120° |
| 2026-05-05 14:04 | 25.39246 | 55.06224 | 8012 ft | 265 kts | 120° |
| 2026-05-05 14:04 | 25.38315 | 55.08018 | 8016 ft | 265 kts | 120° |
| 2026-05-05 14:04 | 25.37400 | 55.09779 | 8015 ft | 264 kts | 120° |
| 2026-05-05 14:05 | 25.36482 | 55.11538 | 8015 ft | 264 kts | 120° |
| 2026-05-05 14:05 | 25.35404 | 55.13177 | 8018 ft | 264 kts | 130° |
| 2026-05-05 14:05 | 25.34208 | 55.14667 | 7852 ft | 261 kts | 132° |
| 2026-05-05 14:05 | 25.32987 | 55.16152 | 7506 ft | 261 kts | 132° |
| 2026-05-05 14:06 | 25.31773 | 55.17632 | 7165 ft | 260 kts | 132° |
| 2026-05-05 14:06 | 25.30564 | 55.19112 | 6856 ft | 258 kts | 132° |
| 2026-05-05 14:06 | 25.29360 | 55.20587 | 6540 ft | 257 kts | 132° |
| 2026-05-05 14:06 | 25.28188 | 55.22024 | 6388 ft | 247 kts | 132° |
| 2026-05-05 14:07 | 25.27063 | 55.23405 | 6249 ft | 238 kts | 132° |
| 2026-05-05 14:07 | 25.26331 | 55.24303 | 6099 ft | 235 kts | 132° |
| 2026-05-05 14:07 | 25.24898 | 55.26061 | 5859 ft | 228 kts | 132° |
| 2026-05-05 14:07 | 25.24195 | 55.26924 | 5710 ft | 229 kts | 131° |
| 2026-05-05 14:08 | 25.23126 | 55.28241 | 5470 ft | 230 kts | 131° |
| 2026-05-05 14:08 | 25.22050 | 55.29557 | 5238 ft | 230 kts | 131° |
| 2026-05-05 14:08 | 25.20979 | 55.30868 | 5050 ft | 229 kts | 131° |
| 2026-05-05 14:08 | 25.19913 | 55.32172 | 4920 ft | 229 kts | 131° |
| 2026-05-05 14:09 | 25.18866 | 55.33501 | 4802 ft | 228 kts | 127° |
| 2026-05-05 14:09 | 25.17974 | 55.34942 | 4689 ft | 228 kts | 121° |
| 2026-05-05 14:09 | 25.17136 | 55.36432 | 4580 ft | 227 kts | 120° |
| 2026-05-05 14:09 | 25.16307 | 55.37913 | 4451 ft | 227 kts | 121° |
| 2026-05-05 14:10 | 25.15475 | 55.39393 | 4328 ft | 226 kts | 121° |
| 2026-05-05 14:10 | 25.14641 | 55.40873 | 4210 ft | 227 kts | 120° |
| 2026-05-05 14:10 | 25.13807 | 55.42345 | 4096 ft | 227 kts | 120° |
| 2026-05-05 14:10 | 25.12969 | 55.43827 | 3969 ft | 233 kts | 120° |
| 2026-05-05 14:11 | 25.12077 | 55.45414 | 3872 ft | 249 kts | 120° |
| 2026-05-05 14:11 | 25.11161 | 55.47031 | 3795 ft | 249 kts | 120° |
| 2026-05-05 14:11 | 25.10253 | 55.48654 | 3672 ft | 247 kts | 120° |
| 2026-05-05 14:11 | 25.09352 | 55.50274 | 3563 ft | 247 kts | 120° |
| 2026-05-05 14:12 | 25.08638 | 55.51982 | 3454 ft | 245 kts | 101° |
| 2026-05-05 14:12 | 25.08666 | 55.53821 | 3175 ft | 241 kts | 73° |
| 2026-05-05 14:12 | 25.09512 | 55.55382 | 2836 ft | 239 kts | 44° |
| 2026-05-05 14:12 | 25.10959 | 55.56256 | 2535 ft | 240 kts | 14° |
| 2026-05-05 14:13 | 25.12614 | 55.56203 | 2289 ft | 239 kts | 345° |
| 2026-05-05 14:13 | 25.14103 | 55.55462 | 2207 ft | 231 kts | 334° |
| 2026-05-05 14:13 | 25.15341 | 55.54388 | 2057 ft | 226 kts | 313° |
| 2026-05-05 14:13 | 25.16185 | 55.52952 | 2037 ft | 223 kts | 301° |
| 2026-05-05 14:14 | 25.16942 | 55.51446 | 2009 ft | 220 kts | 303° |
| 2026-05-05 14:14 | 25.17706 | 55.50092 | 2020 ft | 196 kts | 306° |
| 2026-05-05 14:14 | 25.18386 | 55.48880 | 1963 ft | 177 kts | 305° |
| 2026-05-05 14:14 | 25.19014 | 55.47751 | 1735 ft | 169 kts | 305° |
| 2026-05-05 14:15 | 25.19627 | 55.46648 | 1514 ft | 168 kts | 304° |
| 2026-05-05 14:15 | 25.20239 | 55.45542 | 1299 ft | 169 kts | 306° |
| 2026-05-05 14:15 | 25.20843 | 55.44449 | 1068 ft | 163 kts | 306° |
| 2026-05-05 14:15 | 25.21414 | 55.43418 | 891 ft | 152 kts | 305° |
| 2026-05-05 14:16 | 25.21949 | 55.42452 | 711 ft | 144 kts | 306° |
| 2026-05-05 14:16 | 25.22453 | 55.41541 | 531 ft | 135 kts | 302° |
| 2026-05-05 14:16 | 25.22951 | 55.40641 | 367 ft | 140 kts | 301° |
| 2026-05-05 14:16 | 25.23449 | 55.39719 | 170 ft | 138 kts | 302° |
| 2026-05-05 14:17 | 25.23933 | 55.38835 | 61 ft | 128 kts | 303° |
| 2026-05-05 14:17 | 25.24317 | 55.38178 | 53 ft | 63 kts | 301° |
| 2026-05-05 14:17 | 25.24467 | 55.37880 | 50 ft | 17 kts | 287° |
| 2026-05-05 14:17 | 25.24426 | 55.37774 | 46 ft | 18 kts | 219° |
| 2026-05-05 14:18 | 25.24334 | 55.37703 | 46 ft | 12 kts | 214° |
| 2026-05-05 14:18 | 25.24327 | 55.37696 | 46 ft | 2 kts | 218° |
| 2026-05-05 14:18 | 25.24315 | 55.37669 | 46 ft | 6 kts | 255° |
| 2026-05-05 14:18 | 25.24329 | 55.37615 | 45 ft | 10 kts | 297° |
| 2026-05-05 14:19 | 25.24369 | 55.37536 | 44 ft | 14 kts | 302° |
| 2026-05-05 14:19 | 25.24428 | 55.37431 | 43 ft | 18 kts | 301° |
| 2026-05-05 14:19 | 25.24495 | 55.37309 | 41 ft | 20 kts | 301° |
| 2026-05-05 14:19 | 25.24573 | 55.37168 | 39 ft | 23 kts | 301° |
| 2026-05-05 14:20 | 25.24658 | 55.37017 | 37 ft | 24 kts | 302° |
| 2026-05-05 14:20 | 25.24739 | 55.36869 | 35 ft | 20 kts | 298° |
| 2026-05-05 14:20 | 25.24784 | 55.36718 | 33 ft | 22 kts | 284° |
| 2026-05-05 14:20 | 25.24846 | 55.36556 | 31 ft | 24 kts | 300° |
| 2026-05-05 14:21 | 25.24935 | 55.36397 | 29 ft | 25 kts | 300° |
| 2026-05-05 14:21 | 25.25027 | 55.36228 | 30 ft | 27 kts | 301° |
| 2026-05-05 14:21 | 25.25119 | 55.36065 | 26 ft | 26 kts | 302° |
| 2026-05-05 14:21 | 25.25215 | 55.35891 | 21 ft | 27 kts | 301° |
| 2026-05-05 14:22 | 25.25315 | 55.35707 | 19 ft | 28 kts | 301° |
| 2026-05-05 14:22 | 25.25341 | 55.35661 | 18 ft | 1 kts | 302° |
| 2026-05-05 14:22 | 25.25352 | 55.35642 | 18 ft | 5 kts | 302° |
| 2026-05-05 14:22 | 25.25378 | 55.35597 | 18 ft | 8 kts | 302° |
| 2026-05-05 14:23 | 25.25413 | 55.35535 | 18 ft | 10 kts | 301° |
| 2026-05-05 14:23 | 25.25453 | 55.35461 | 19 ft | 12 kts | 301° |
| 2026-05-05 14:23 | 25.25498 | 55.35379 | 20 ft | 13 kts | 301° |
| 2026-05-05 14:23 | 25.25546 | 55.35293 | 21 ft | 13 kts | 303° |
| 2026-05-05 14:24 | 25.25595 | 55.35205 | 23 ft | 14 kts | 301° |
| 2026-05-05 14:24 | 25.25645 | 55.35115 | 27 ft | 14 kts | 302° |
| 2026-05-05 14:24 | 25.25699 | 55.35011 | 26 ft | 16 kts | 299° |
| 2026-05-05 14:24 | 25.25758 | 55.34904 | 28 ft | 17 kts | 301° |
| 2026-05-05 14:25 | 25.25823 | 55.34787 | 29 ft | 20 kts | 301° |
| 2026-05-05 14:25 | 25.25895 | 55.34658 | 30 ft | 18 kts | 301° |
| 2026-05-05 14:25 | 25.25955 | 55.34551 | 31 ft | 14 kts | 301° |
| 2026-05-05 14:25 | 25.25969 | 55.34526 | 31 ft | 3 kts | 301° |
| 2026-05-05 14:26 | 25.25979 | 55.34497 | 31 ft | 4 kts | 274° |
| 2026-05-05 14:26 | 25.25962 | 55.34466 | 32 ft | 6 kts | 224° |
| 2026-05-05 14:26 | 25.25921 | 55.34434 | 32 ft | 0 kts | 213° |
| 2026-05-05 14:26 | 25.25921 | 55.34433 | 32 ft | 0 kts | 213° |